Obea — FAA2295 — position and weather

sailwx.info

Track history (hours):
 
Tides and Currents Weather Stations Pressure Air Temp Water Temp Dewpoint Dewpoint Depression Visibility Wind Speed Wind Dir Waves Ship Positions

Obea

Last reported at 2018-May-11 11:49 UTC. Time now 2018-Jun-19 10:41 UTC.
Position N 47°30' W 002°30'.
Warning: this ship's position is 38 days out of date.

Type: Sailing vessel. MMSI: 227100580.

Date/timePositionNaut miles runAvg speedWind from/ knotsBaromVisibWave heightAir tempDewpointWater temp
2018-May-11 11:49N 47°30' W 002°30'2 7.5
2018-May-11 11:29N 47°30' W 002°33'4 8.5
2018-May-11 11:00N 47°28' W 002°39'5 8.8
2018-May-11 10:28N 47°28' W 002°46'4 7.4
2018-May-11 10:00N 47°28' W 002°51'3 6.8
2018-May-11 09:30N 47°29' W 002°56'2 3.8
2018-May-11 09:00N 47°30' W 002°56'3 5.2
2018-May-11 08:30N 47°33' W 002°54'0 0.0
2018-May-09 13:31N 47°33' W 002°54'0 0.0
2018-May-09 13:25N 47°33' W 002°54'0 1.2
2018-May-09 13:00N 47°32' W 002°54'3 5.2
2018-May-09 12:30N 47°31' W 002°57'3 6.6
2018-May-09 12:00N 47°28' W 003°01'3 5.9
2018-May-09 11:30N 47°27' W 003°05'3 5.2
2018-May-09 10:59N 47°28' W 003°09'3 5.3
2018-May-09 10:31N 47°30' W 003°11'2 5.0
2018-May-09 10:01N 47°32' W 003°14'4 7.4
2018-May-09 09:30N 47°35' W 003°17'4 7.2
2018-May-09 09:00N 47°38' W 003°20'3 5.7
2018-May-09 08:30N 47°40' W 003°23'3 6.8
2018-May-09 08:00N 47°43' W 003°21'0 0.6
2018-May-09 07:30N 47°44' W 003°21'0 0.0
2018-May-08 13:45N 47°44' W 003°21'0 0.0
2018-May-08 13:30N 47°44' W 003°21'1 0.0
2018-May-06 17:39N 47°43' W 003°21'0 0.0
2018-May-06 17:29N 47°43' W 003°21'2 4.7
2018-May-06 17:00N 47°40' W 003°22'3 6.6
2018-May-06 16:31N 47°38' W 003°19'4 6.9
2018-May-06 16:00N 47°35' W 003°16'3 7.0
2018-May-06 15:30N 47°32' W 003°13'3 6.7
2018-May-06 15:00N 47°29' W 003°10'3 6.6
2018-May-06 14:30N 47°26' W 003°08'67 2.7
2018-May-05 13:59N 46°40' W 001°57'2 4.6
2018-May-05 13:30N 46°38' W 001°55'2 3.3
2018-May-05 13:00N 46°36' W 001°54'2 4.0
2018-May-05 12:30N 46°35' W 001°53'3 6.1
2018-May-05 12:00N 46°32' W 001°54'3 5.6
2018-May-05 11:30N 46°29' W 001°54'2 3.9
2018-May-05 11:00N 46°27' W 001°53'2 4.4
2018-May-05 10:30N 46°26' W 001°50'4 7.6
2018-May-05 09:59N 46°23' W 001°47'18 6.6
2018-May-05 07:17N 46°10' W 001°29'2 7.2
2018-May-05 07:00N 46°10' W 001°26'4 8.3
2018-May-05 06:30N 46°08' W 001°21'4 7.9
2018-May-05 06:01N 46°08' W 001°15'3 6.4
2018-May-05 05:30N 46°09' W 001°10'0 0.3
2018-May-05 04:58N 46°09' W 001°10'0 0.0
2018-May-04 17:28N 46°09' W 001°10'0 0.1
2018-May-04 17:00N 46°09' W 001°10'0 0.1
2018-May-04 16:29N 46°09' W 001°10'0 0.0
2018-May-04 15:59N 46°09' W 001°10'1 2.3
2018-May-04 15:30N 46°08' W 001°11'2 4.6
2018-May-04 15:00N 46°08' W 001°15'2 4.8
2018-May-04 14:30N 46°09' W 001°11'1 1.7
2018-May-04 14:00N 46°09' W 001°10'0 0.0
2018-May-04 13:30N 46°09' W 001°10'0 0.0
2018-May-04 13:00N 46°09' W 001°10'0 0.0
2018-May-04 12:30N 46°09' W 001°10'0 0.0
2018-May-04 12:00N 46°09' W 001°10'0 0.0
2018-May-04 11:30N 46°09' W 001°10'0 0.0
2018-May-04 11:00N 46°09' W 001°10'0 0.0
2018-May-04 10:30N 46°09' W 001°10'0 0.0
2018-May-04 10:00N 46°09' W 001°10'0 0.0
2018-May-04 09:30N 46°09' W 001°10'0 0.0
2018-May-04 09:00N 46°09' W 001°10'0 0.0
2018-May-04 08:30N 46°09' W 001°10'0 0.0
2018-May-04 08:00N 46°09' W 001°10'0 0.0
2018-May-04 07:30N 46°09' W 001°10'1 1.1
2018-May-04 07:00N 46°09' W 001°10'0 0.0
2018-May-03 14:55N 46°09' W 001°09'0 0.0
2018-May-03 14:28N 46°09' W 001°09'0 0.0
2018-May-03 13:58N 46°09' W 001°09'0 0.0
2018-May-03 13:28N 46°09' W 001°09'0 0.0
2018-May-03 12:58N 46°09' W 001°09'0 0.0
2018-May-03 12:28N 46°09' W 001°09'0 0.0
2018-May-03 11:59N 46°09' W 001°09'0 0.0
2018-May-03 11:29N 46°09' W 001°09'0 0.0
2018-May-02 19:07N 46°09' W 001°09'0 0.0
2018-May-02 18:58N 46°09' W 001°09'0 0.0
2018-May-02 18:28N 46°09' W 001°09'0 0.0
2018-May-02 17:58N 46°09' W 001°09'0 0.0
2018-May-02 17:28N 46°09' W 001°09'0 0.0
2018-May-02 16:58N 46°09' W 001°09'0 0.0
2018-May-02 16:28N 46°09' W 001°09'0 0.0
2018-May-02 15:58N 46°09' W 001°09'0 0.0
2018-May-02 15:28N 46°09' W 001°09'0 0.0
2018-May-02 14:58N 46°09' W 001°09'0 0.0
2018-May-02 14:28N 46°09' W 001°09'0 0.0
2018-May-02 13:58N 46°09' W 001°09'0 0.0
2018-May-02 13:28N 46°09' W 001°09'0 0.0
2018-May-02 12:58N 46°09' W 001°09'0 0.0
2018-May-02 12:28N 46°09' W 001°09'0 0.0
2018-May-02 11:58N 46°09' W 001°09'0 0.0
2018-May-02 11:28N 46°09' W 001°09'0 0.0
2018-May-02 10:58N 46°09' W 001°09'0 0.0
2018-May-02 10:28N 46°09' W 001°09'0 0.0
2018-May-02 09:58N 46°09' W 001°09'0 0.0
2018-May-02 09:28N 46°09' W 001°09'0 0.0
2018-May-02 08:55N 46°09' W 001°09'0 0.0
2018-May-02 08:28N 46°09' W 001°09'0 0.0
2018-May-02 07:58N 46°09' W 001°09'0 0.0
2018-May-01 17:21N 46°09' W 001°09'0 0.0
2018-May-01 17:00N 46°09' W 001°09'0 0.0
2018-May-01 16:30N 46°09' W 001°09'  
Track history (hours):
 
Tides and Currents Weather Stations Pressure Air Temp Water Temp Dewpoint Dewpoint Depression Visibility Wind Speed Wind Dir Waves Ship Positions

Obea

Last reported at 2018-May-11 11:49 UTC. Time now 2018-Jun-19 10:41 UTC.
Position N 47°30' W 002°30'.
Warning: this ship's position is 38 days out of date.

Type: Sailing vessel. MMSI: 227100580.

Date/timePositionNaut miles runAvg speedWind from/ knotsBaromVisibWave heightAir tempDewpointWater temp
2018-May-11 11:49N 47°30' W 002°30'2 7.5
2018-May-11 11:29N 47°30' W 002°33'4 8.5
2018-May-11 11:00N 47°28' W 002°39'5 8.8
2018-May-11 10:28N 47°28' W 002°46'4 7.4
2018-May-11 10:00N 47°28' W 002°51'3 6.8
2018-May-11 09:30N 47°29' W 002°56'2 3.8
2018-May-11 09:00N 47°30' W 002°56'3 5.2
2018-May-11 08:30N 47°33' W 002°54'0 0.0
2018-May-09 13:31N 47°33' W 002°54'0 0.0
2018-May-09 13:25N 47°33' W 002°54'0 1.2
2018-May-09 13:00N 47°32' W 002°54'3 5.2
2018-May-09 12:30N 47°31' W 002°57'3 6.6
2018-May-09 12:00N 47°28' W 003°01'3 5.9
2018-May-09 11:30N 47°27' W 003°05'3 5.2
2018-May-09 10:59N 47°28' W 003°09'3 5.3
2018-May-09 10:31N 47°30' W 003°11'2 5.0
2018-May-09 10:01N 47°32' W 003°14'4 7.4
2018-May-09 09:30N 47°35' W 003°17'4 7.2
2018-May-09 09:00N 47°38' W 003°20'3 5.7
2018-May-09 08:30N 47°40' W 003°23'3 6.8
2018-May-09 08:00N 47°43' W 003°21'0 0.6
2018-May-09 07:30N 47°44' W 003°21'0 0.0
2018-May-08 13:45N 47°44' W 003°21'0 0.0
2018-May-08 13:30N 47°44' W 003°21'1 0.0
2018-May-06 17:39N 47°43' W 003°21'0 0.0
2018-May-06 17:29N 47°43' W 003°21'2 4.7
2018-May-06 17:00N 47°40' W 003°22'3 6.6
2018-May-06 16:31N 47°38' W 003°19'4 6.9
2018-May-06 16:00N 47°35' W 003°16'3 7.0
2018-May-06 15:30N 47°32' W 003°13'3 6.7
2018-May-06 15:00N 47°29' W 003°10'3 6.6
2018-May-06 14:30N 47°26' W 003°08'67 2.7
2018-May-05 13:59N 46°40' W 001°57'2 4.6
2018-May-05 13:30N 46°38' W 001°55'2 3.3
2018-May-05 13:00N 46°36' W 001°54'2 4.0
2018-May-05 12:30N 46°35' W 001°53'3 6.1
2018-May-05 12:00N 46°32' W 001°54'3 5.6
2018-May-05 11:30N 46°29' W 001°54'2 3.9
2018-May-05 11:00N 46°27' W 001°53'2 4.4
2018-May-05 10:30N 46°26' W 001°50'4 7.6
2018-May-05 09:59N 46°23' W 001°47'18 6.6
2018-May-05 07:17N 46°10' W 001°29'2 7.2
2018-May-05 07:00N 46°10' W 001°26'4 8.3
2018-May-05 06:30N 46°08' W 001°21'4 7.9
2018-May-05 06:01N 46°08' W 001°15'3 6.4
2018-May-05 05:30N 46°09' W 001°10'0 0.3
2018-May-05 04:58N 46°09' W 001°10'0 0.0
2018-May-04 17:28N 46°09' W 001°10'0 0.1
2018-May-04 17:00N 46°09' W 001°10'0 0.1
2018-May-04 16:29N 46°09' W 001°10'0 0.0
2018-May-04 15:59N 46°09' W 001°10'1 2.3
2018-May-04 15:30N 46°08' W 001°11'2 4.6
2018-May-04 15:00N 46°08' W 001°15'2 4.8
2018-May-04 14:30N 46°09' W 001°11'1 1.7
2018-May-04 14:00N 46°09' W 001°10'0 0.0
2018-May-04 13:30N 46°09' W 001°10'0 0.0
2018-May-04 13:00N 46°09' W 001°10'0 0.0
2018-May-04 12:30N 46°09' W 001°10'0 0.0
2018-May-04 12:00N 46°09' W 001°10'0 0.0
2018-May-04 11:30N 46°09' W 001°10'0 0.0
2018-May-04 11:00N 46°09' W 001°10'0 0.0
2018-May-04 10:30N 46°09' W 001°10'0 0.0
2018-May-04 10:00N 46°09' W 001°10'0 0.0
2018-May-04 09:30N 46°09' W 001°10'0 0.0
2018-May-04 09:00N 46°09' W 001°10'0 0.0
2018-May-04 08:30N 46°09' W 001°10'0 0.0
2018-May-04 08:00N 46°09' W 001°10'0 0.0
2018-May-04 07:30N 46°09' W 001°10'1 1.1
2018-May-04 07:00N 46°09' W 001°10'0 0.0
2018-May-03 14:55N 46°09' W 001°09'0 0.0
2018-May-03 14:28N 46°09' W 001°09'0 0.0
2018-May-03 13:58N 46°09' W 001°09'0 0.0
2018-May-03 13:28N 46°09' W 001°09'0 0.0
2018-May-03 12:58N 46°09' W 001°09'0 0.0
2018-May-03 12:28N 46°09' W 001°09'0 0.0
2018-May-03 11:59N 46°09' W 001°09'0 0.0
2018-May-03 11:29N 46°09' W 001°09'0 0.0
2018-May-02 19:07N 46°09' W 001°09'0 0.0
2018-May-02 18:58N 46°09' W 001°09'0 0.0
2018-May-02 18:28N 46°09' W 001°09'0 0.0
2018-May-02 17:58N 46°09' W 001°09'0 0.0
2018-May-02 17:28N 46°09' W 001°09'0 0.0
2018-May-02 16:58N 46°09' W 001°09'0 0.0
2018-May-02 16:28N 46°09' W 001°09'0 0.0
2018-May-02 15:58N 46°09' W 001°09'0 0.0
2018-May-02 15:28N 46°09' W 001°09'0 0.0
2018-May-02 14:58N 46°09' W 001°09'0 0.0
2018-May-02 14:28N 46°09' W 001°09'0 0.0
2018-May-02 13:58N 46°09' W 001°09'0 0.0
2018-May-02 13:28N 46°09' W 001°09'0 0.0
2018-May-02 12:58N 46°09' W 001°09'0 0.0
2018-May-02 12:28N 46°09' W 001°09'0 0.0
2018-May-02 11:58N 46°09' W 001°09'0 0.0
2018-May-02 11:28N 46°09' W 001°09'0 0.0
2018-May-02 10:58N 46°09' W 001°09'0 0.0
2018-May-02 10:28N 46°09' W 001°09'0 0.0
2018-May-02 09:58N 46°09' W 001°09'0 0.0
2018-May-02 09:28N 46°09' W 001°09'0 0.0
2018-May-02 08:55N 46°09' W 001°09'0 0.0
2018-May-02 08:28N 46°09' W 001°09'0 0.0
2018-May-02 07:58N 46°09' W 001°09'0 0.0
2018-May-01 17:21N 46°09' W 001°09'0 0.0
2018-May-01 17:00N 46°09' W 001°09'0 0.0
2018-May-01 16:30N 46°09' W 001°09'  

Dump ship's entire track history